createdAt,value
2023-02-17T00:01:14.464Z,8.80
2023-02-17T00:03:48.305Z,9.00
2023-02-17T00:06:24.651Z,9.00
2023-02-17T00:08:58.167Z,9.20
2023-02-17T00:11:32.640Z,9.30
2023-02-17T00:14:05.782Z,9.30
2023-02-17T00:16:38.771Z,9.40
2023-02-17T00:19:26.377Z,9.50
2023-02-17T00:22:01.321Z,9.60
2023-02-17T00:24:38.901Z,9.80
2023-02-17T00:27:13.247Z,9.70
2023-02-17T00:29:46.456Z,9.70
2023-02-17T00:32:19.541Z,9.80
2023-02-17T00:34:55.441Z,9.90
2023-02-17T00:37:28.426Z,9.90
2023-02-17T00:40:01.503Z,9.90
2023-02-17T00:42:35.922Z,9.90
2023-02-17T00:45:10.241Z,9.80
2023-02-17T00:47:43.452Z,9.90
2023-02-17T00:50:16.660Z,9.90
2023-02-17T00:52:49.712Z,9.80
2023-02-17T00:55:22.739Z,9.90
2023-02-17T00:57:57.213Z,9.90
2023-02-17T01:00:30.343Z,9.90
2023-02-17T01:03:03.521Z,10.00
2023-02-17T01:05:42.451Z,10.00
2023-02-17T01:08:16.361Z,9.90
2023-02-17T01:10:50.873Z,9.90
2023-02-17T01:13:25.357Z,10.00
2023-02-17T01:15:58.739Z,10.00
2023-02-17T01:18:31.843Z,10.00
2023-02-17T01:21:05.136Z,9.90
2023-02-17T01:23:38.216Z,10.00
2023-02-17T01:26:15.751Z,10.00
2023-02-17T01:28:52.257Z,10.10
2023-02-17T01:31:27.849Z,10.10
2023-02-17T01:34:04.636Z,10.20
2023-02-17T01:36:37.713Z,10.20
2023-02-17T01:39:14.279Z,10.20
2023-02-17T01:41:47.654Z,10.40
2023-02-17T01:44:24.396Z,10.30
2023-02-17T01:46:57.679Z,10.40
2023-02-17T01:49:35.479Z,10.40
2023-02-17T01:52:16.108Z,10.60
2023-02-17T01:54:52.476Z,10.60
2023-02-17T01:57:31.859Z,10.50
2023-02-17T02:00:10.450Z,10.50
2023-02-17T02:02:49.265Z,10.60
2023-02-17T02:05:23.354Z,10.60
2023-02-17T02:07:56.715Z,10.50
2023-02-17T02:10:29.777Z,10.40
2023-02-17T02:13:02.961Z,10.40
2023-02-17T02:15:47.654Z,10.30
2023-02-17T02:18:45.576Z,10.30
2023-02-17T02:21:53.871Z,10.30
2023-02-17T02:24:40.004Z,10.30
2023-02-17T02:27:47.415Z,10.30
2023-02-17T02:30:51.379Z,10.30
2023-02-17T02:33:36.833Z,10.20
2023-02-17T02:36:15.845Z,10.20
2023-02-17T02:38:54.850Z,10.20
2023-02-17T02:41:32.823Z,10.20
2023-02-17T02:44:07.731Z,10.20
2023-02-17T02:46:41.277Z,10.20
2023-02-17T02:49:15.643Z,10.20
2023-02-17T02:51:55.793Z,10.30
2023-02-17T02:54:44.344Z,10.30
2023-02-17T02:57:34.544Z,10.30
2023-02-17T03:00:20.525Z,10.30
2023-02-17T03:02:59.954Z,10.30
2023-02-17T03:05:45.910Z,10.20
2023-02-17T03:08:25.588Z,10.20
2023-02-17T03:10:58.911Z,10.20
2023-02-17T03:13:37.925Z,10.10
2023-02-17T03:16:12.962Z,10.10
2023-02-17T03:18:46.058Z,10.10
2023-02-17T03:21:20.825Z,10.10
2023-02-17T03:23:53.903Z,10.10
2023-02-17T03:26:26.974Z,10.20
2023-02-17T03:29:00.154Z,10.10
2023-02-17T03:31:33.975Z,10.10
2023-02-17T03:34:07.387Z,10.10
2023-02-17T03:36:41.802Z,10.00
2023-02-17T03:39:14.868Z,10.10
2023-02-17T03:41:50.533Z,10.10
2023-02-17T03:44:23.633Z,10.00
2023-02-17T03:46:56.684Z,10.10
2023-02-17T03:49:29.974Z,10.20
2023-02-17T03:52:04.607Z,10.20
2023-02-17T03:54:38.640Z,10.10
2023-02-17T03:57:11.848Z,10.10
2023-02-17T03:59:45.528Z,10.10
2023-02-17T04:02:18.578Z,10.00
2023-02-17T04:04:51.638Z,10.10
2023-02-17T04:07:26.064Z,10.00
2023-02-17T04:09:59.121Z,10.10
2023-02-17T04:12:32.152Z,10.00
2023-02-17T04:15:05.750Z,10.00
2023-02-17T04:17:39.682Z,10.10
2023-02-17T04:20:14.146Z,10.00
2023-02-17T04:22:48.624Z,10.00
2023-02-17T04:25:21.694Z,10.00
2023-02-17T04:27:54.687Z,10.00
2023-02-17T04:30:27.968Z,10.00
2023-02-17T04:33:01.642Z,10.00
2023-02-17T04:35:34.692Z,10.00
2023-02-17T04:38:10.356Z,10.00
2023-02-17T04:40:44.348Z,10.00
2023-02-17T04:43:17.348Z,10.00
2023-02-17T04:45:50.597Z,10.00
2023-02-17T04:48:23.943Z,10.00
2023-02-17T04:50:57.003Z,10.10
2023-02-17T04:53:31.504Z,10.30
2023-02-17T04:56:05.380Z,10.20
2023-02-17T04:58:38.646Z,10.20
2023-02-17T05:01:11.892Z,10.10
2023-02-17T05:03:45.000Z,10.10
2023-02-17T05:06:18.034Z,10.20
2023-02-17T05:08:53.755Z,10.30
2023-02-17T05:11:26.987Z,10.30
2023-02-17T05:13:59.982Z,10.20
2023-02-17T05:16:33.253Z,10.10
2023-02-17T05:19:06.320Z,10.10
2023-02-17T05:21:39.626Z,10.20
2023-02-17T05:24:14.064Z,10.10
2023-02-17T05:26:47.193Z,10.00
2023-02-17T05:29:20.458Z,10.00
2023-02-17T05:31:53.543Z,10.00
2023-02-17T05:34:26.664Z,10.00
2023-02-17T05:36:59.831Z,9.90
2023-02-17T05:39:34.171Z,10.00
2023-02-17T05:42:07.344Z,10.00
2023-02-17T05:44:40.424Z,10.00
2023-02-17T05:47:13.500Z,10.00
2023-02-17T05:49:46.611Z,10.00
2023-02-17T05:52:19.777Z,10.00
2023-02-17T05:54:54.248Z,10.00
2023-02-17T05:57:27.601Z,10.00
2023-02-17T06:00:00.829Z,10.00
2023-02-17T06:02:33.902Z,10.00
2023-02-17T06:05:08.480Z,10.00
2023-02-17T06:07:41.646Z,9.90
2023-02-17T06:10:16.401Z,10.00
2023-02-17T06:12:49.529Z,9.90
2023-02-17T06:15:23.036Z,10.00
2023-02-17T06:17:56.252Z,9.90
2023-02-17T06:20:29.546Z,9.90
2023-02-17T06:23:02.858Z,10.00
2023-02-17T06:25:37.411Z,9.90
2023-02-17T06:28:10.505Z,10.00
2023-02-17T06:30:43.628Z,10.00
2023-02-17T06:33:16.852Z,9.90
2023-02-17T06:35:51.222Z,9.90
2023-02-17T06:38:24.369Z,9.90
2023-02-17T06:40:58.908Z,9.90
2023-02-17T06:43:32.206Z,9.90
2023-02-17T06:46:06.543Z,9.90
2023-02-17T06:48:40.053Z,9.90
2023-02-17T06:51:13.241Z,9.90
2023-02-17T06:53:46.527Z,9.90
2023-02-17T06:56:21.481Z,10.00
2023-02-17T06:58:54.606Z,9.90
2023-02-17T07:01:28.131Z,9.90
2023-02-17T07:04:01.237Z,9.90
2023-02-17T07:06:34.516Z,9.90
2023-02-17T07:09:07.744Z,9.90
2023-02-17T07:11:45.187Z,9.90
2023-02-17T07:14:18.368Z,10.00
2023-02-17T07:16:51.997Z,10.00
2023-02-17T07:19:25.121Z,10.00
2023-02-17T07:21:58.322Z,10.10
2023-02-17T07:24:31.527Z,10.10
2023-02-17T07:27:10.608Z,10.10
2023-02-17T07:29:43.971Z,10.10
2023-02-17T07:32:17.334Z,10.20
2023-02-17T07:34:50.497Z,10.20
2023-02-17T07:37:23.629Z,10.20
2023-02-17T07:39:57.280Z,10.10
2023-02-17T07:42:31.905Z,10.20
2023-02-17T07:45:05.954Z,10.20
2023-02-17T07:47:39.250Z,10.20
2023-02-17T07:50:12.826Z,10.20
2023-02-17T07:52:46.199Z,10.30
2023-02-17T07:55:19.610Z,10.20
2023-02-17T07:57:54.232Z,10.20
2023-02-17T08:00:27.814Z,10.20
2023-02-17T08:03:01.418Z,10.30
2023-02-17T08:05:34.533Z,10.30
2023-02-17T08:08:25.684Z,10.30
2023-02-17T08:11:22.046Z,10.40
2023-02-17T08:13:56.869Z,10.50
2023-02-17T08:16:30.116Z,10.50
2023-02-17T08:19:03.399Z,10.50
2023-02-17T08:21:36.725Z,10.50
2023-02-17T08:24:09.869Z,10.60
2023-02-17T08:26:43.403Z,10.70
2023-02-17T08:29:20.274Z,10.80
2023-02-17T08:31:54.881Z,10.80
2023-02-17T08:34:28.813Z,10.90
2023-02-17T08:37:02.363Z,11.00
2023-02-17T08:39:37.027Z,11.00
2023-02-17T08:42:11.401Z,11.00
2023-02-17T08:44:46.299Z,11.10
2023-02-17T08:47:19.681Z,11.20
2023-02-17T08:49:52.852Z,11.20
2023-02-17T08:52:26.112Z,11.10
2023-02-17T08:54:59.639Z,11.10
2023-02-17T08:57:32.927Z,11.10
2023-02-17T09:00:10.272Z,11.10
2023-02-17T09:02:45.144Z,11.20
2023-02-17T09:05:18.310Z,11.30
2023-02-17T09:07:51.415Z,11.40
2023-02-17T09:10:24.742Z,11.40
2023-02-17T09:12:58.406Z,11.40
2023-02-17T09:15:33.324Z,11.60
2023-02-17T09:18:06.599Z,11.50
2023-02-17T09:20:40.268Z,11.50
2023-02-17T09:23:13.480Z,11.50
2023-02-17T09:25:47.472Z,11.50
2023-02-17T09:28:20.656Z,11.60
2023-02-17T09:30:55.487Z,11.50
2023-02-17T09:33:28.685Z,11.60
2023-02-17T09:36:02.089Z,11.60
2023-02-17T09:38:35.333Z,11.50
2023-02-17T09:41:19.013Z,11.60
2023-02-17T09:43:53.133Z,11.60
2023-02-17T09:46:31.650Z,11.60
2023-02-17T09:49:10.223Z,11.60
2023-02-17T09:51:46.977Z,11.50
2023-02-17T09:54:29.061Z,11.50
2023-02-17T09:57:04.986Z,11.50
2023-02-17T09:59:43.354Z,11.50
2023-02-17T10:02:26.930Z,11.50
2023-02-17T10:05:08.102Z,11.50
2023-02-17T10:07:47.334Z,11.40
2023-02-17T10:10:23.982Z,11.50
2023-02-17T10:12:59.691Z,11.50
2023-02-17T10:15:40.372Z,11.40
2023-02-17T10:18:21.230Z,11.40
2023-02-17T10:21:01.853Z,11.40
2023-02-17T10:23:36.341Z,11.40
2023-02-17T10:26:23.916Z,11.40
2023-02-17T10:29:05.783Z,11.50
2023-02-17T10:31:46.595Z,11.70
2023-02-17T10:34:35.665Z,11.60
2023-02-17T10:37:18.533Z,11.60
2023-02-17T10:39:54.409Z,11.80
2023-02-17T10:42:31.496Z,11.90
2023-02-17T10:45:12.290Z,11.90
2023-02-17T10:47:45.886Z,11.80
2023-02-17T10:50:23.907Z,11.70
2023-02-17T10:52:57.875Z,12.00
2023-02-17T10:55:38.069Z,12.00
2023-02-17T10:58:18.286Z,11.90
2023-02-17T11:00:57.459Z,12.10
2023-02-17T11:03:32.445Z,12.10
2023-02-17T11:06:17.937Z,12.10
2023-02-17T11:08:53.938Z,12.20
2023-02-17T11:11:30.522Z,12.40
2023-02-17T11:14:13.786Z,12.30
2023-02-17T11:16:53.811Z,12.30
2023-02-17T11:19:30.679Z,12.40
2023-02-17T11:22:23.416Z,12.30
2023-02-17T11:25:00.714Z,12.30
2023-02-17T11:27:34.062Z,12.50
2023-02-17T11:30:15.157Z,12.60
2023-02-17T11:32:48.664Z,12.80
2023-02-17T11:35:26.335Z,12.90
2023-02-17T11:38:10.865Z,12.90
2023-02-17T11:40:55.767Z,13.10
2023-02-17T11:43:29.722Z,13.10
2023-02-17T11:46:21.202Z,13.30
2023-02-17T11:50:00.640Z,13.20
2023-02-17T11:52:56.142Z,13.10
2023-02-17T11:55:42.602Z,13.00
2023-02-17T11:58:29.945Z,13.00
2023-02-17T12:01:12.763Z,13.00
2023-02-17T12:04:32.028Z,13.10
2023-02-17T12:07:29.356Z,13.10
2023-02-17T12:10:11.210Z,13.00
2023-02-17T12:13:02.305Z,12.90
2023-02-17T12:15:57.079Z,12.80
2023-02-17T12:18:49.443Z,12.80
2023-02-17T12:21:36.102Z,12.70
2023-02-17T12:24:28.398Z,12.60
2023-02-17T12:27:12.023Z,12.70
2023-02-17T12:30:18.773Z,12.60
2023-02-17T12:33:16.916Z,12.60
2023-02-17T12:35:54.011Z,12.70
2023-02-17T12:38:32.377Z,12.70
2023-02-17T12:41:10.757Z,12.70
2023-02-17T12:43:49.419Z,12.60
2023-02-17T12:46:28.747Z,12.70
2023-02-17T12:49:09.736Z,12.60
2023-02-17T12:51:48.818Z,12.60
2023-02-17T12:54:28.197Z,12.60
2023-02-17T12:57:14.955Z,12.50
2023-02-17T12:59:50.335Z,12.60
2023-02-17T13:02:26.912Z,12.60
2023-02-17T13:05:05.997Z,12.60
2023-02-17T13:07:45.859Z,12.70
2023-02-17T13:10:32.522Z,12.70
2023-02-17T13:13:12.158Z,12.80
2023-02-17T13:15:48.011Z,12.80
2023-02-17T13:18:33.146Z,12.90
2023-02-17T13:21:20.350Z,13.00
2023-02-17T13:24:02.194Z,12.90
2023-02-17T13:26:37.409Z,12.90
2023-02-17T13:29:34.071Z,13.00
2023-02-17T13:32:10.677Z,12.80
2023-02-17T13:34:46.945Z,12.80
2023-02-17T13:37:28.307Z,13.00
2023-02-17T13:40:02.979Z,12.90
2023-02-17T13:42:40.763Z,12.80
2023-02-17T13:45:25.736Z,12.80
2023-02-17T13:48:01.176Z,12.80
2023-02-17T13:50:38.708Z,12.80
2023-02-17T13:53:30.586Z,12.80
2023-02-17T13:56:07.042Z,12.80
2023-02-17T13:58:43.174Z,12.80
2023-02-17T14:01:19.307Z,13.00
2023-02-17T14:04:00.149Z,13.10
2023-02-17T14:06:38.191Z,12.90
2023-02-17T14:09:27.200Z,13.00
2023-02-17T14:12:04.592Z,12.90
2023-02-17T14:14:40.110Z,13.00
2023-02-17T14:17:32.733Z,13.00
2023-02-17T14:20:07.886Z,13.10
2023-02-17T14:22:41.844Z,13.00
2023-02-17T14:25:29.637Z,13.10
2023-02-17T14:28:03.122Z,13.20
2023-02-17T14:30:38.704Z,13.20
2023-02-17T14:33:23.564Z,13.30
2023-02-17T14:36:00.284Z,13.20
2023-02-17T14:38:37.730Z,13.40
2023-02-17T14:41:12.322Z,13.30
2023-02-17T14:43:45.551Z,13.20
2023-02-17T14:46:19.937Z,13.20
2023-02-17T14:48:55.396Z,13.50
2023-02-17T14:51:36.089Z,13.60
2023-02-17T14:54:16.263Z,13.60
2023-02-17T14:57:04.858Z,13.50
2023-02-17T14:59:38.070Z,13.80
2023-02-17T15:02:16.061Z,13.80
2023-02-17T15:04:49.307Z,13.60
2023-02-17T15:07:22.503Z,13.70
2023-02-17T15:09:56.492Z,13.60
2023-02-17T15:12:31.177Z,13.70
2023-02-17T15:15:04.814Z,13.60
2023-02-17T15:17:37.952Z,13.70
2023-02-17T15:20:12.969Z,13.60
2023-02-17T15:22:46.327Z,13.60
2023-02-17T15:25:23.090Z,13.60
2023-02-17T15:27:57.734Z,13.70
2023-02-17T15:30:31.324Z,13.70
2023-02-17T15:33:04.749Z,13.70
2023-02-17T15:35:38.188Z,13.70
2023-02-17T15:38:13.879Z,13.70
2023-02-17T15:40:47.259Z,13.80
2023-02-17T15:43:24.389Z,13.80
2023-02-17T15:45:57.789Z,13.60
2023-02-17T15:48:31.976Z,13.70
2023-02-17T15:51:06.605Z,13.50
2023-02-17T15:53:39.852Z,13.50
2023-02-17T15:56:20.154Z,13.50
2023-02-17T15:58:55.625Z,13.50
2023-02-17T16:01:31.045Z,13.50
2023-02-17T16:04:04.917Z,13.30
2023-02-17T16:06:38.908Z,13.30
2023-02-17T16:09:12.573Z,13.30
2023-02-17T16:11:50.992Z,13.30
2023-02-17T16:14:35.092Z,13.30
2023-02-17T16:17:15.386Z,13.20
2023-02-17T16:19:48.991Z,13.30
2023-02-17T16:22:22.197Z,13.20
2023-02-17T16:24:55.379Z,13.30
2023-02-17T16:27:28.648Z,13.10
2023-02-17T16:30:03.873Z,13.20
2023-02-17T16:32:37.700Z,13.00
2023-02-17T16:35:16.280Z,12.90
2023-02-17T16:37:56.030Z,12.90
2023-02-17T16:40:32.064Z,12.90
2023-02-17T16:43:05.901Z,12.90
2023-02-17T16:45:51.594Z,12.90
2023-02-17T16:48:26.739Z,12.90
2023-02-17T16:51:00.150Z,12.90
2023-02-17T16:53:33.318Z,12.90
2023-02-17T16:56:18.025Z,13.00
2023-02-17T16:58:51.587Z,13.00
2023-02-17T17:01:26.195Z,13.00
2023-02-17T17:03:59.393Z,13.10
2023-02-17T17:06:32.695Z,13.10
2023-02-17T17:09:07.062Z,13.10
2023-02-17T17:11:40.679Z,13.10
2023-02-17T17:14:14.883Z,13.10
2023-02-17T17:16:55.812Z,13.10
2023-02-17T17:19:29.142Z,13.10
2023-02-17T17:22:04.227Z,13.10
2023-02-17T17:24:38.084Z,13.10
2023-02-17T17:27:12.942Z,13.20
2023-02-17T17:29:46.206Z,13.10
2023-02-17T17:32:20.830Z,13.20
2023-02-17T17:34:55.128Z,13.30
2023-02-17T17:37:28.608Z,13.40
2023-02-17T17:40:01.807Z,13.40
2023-02-17T17:42:37.734Z,13.30
2023-02-17T17:45:11.481Z,13.30
2023-02-17T17:47:46.544Z,13.50
2023-02-17T17:50:23.548Z,13.40
2023-02-17T17:52:56.841Z,13.40
2023-02-17T17:55:30.121Z,13.50
2023-02-17T17:58:03.683Z,13.50
2023-02-17T18:00:37.280Z,13.50
2023-02-17T18:03:11.862Z,13.40
2023-02-17T18:05:45.386Z,13.60
2023-02-17T18:08:20.535Z,13.60
2023-02-17T18:10:53.874Z,13.60
2023-02-17T18:13:27.906Z,13.50
2023-02-17T18:16:01.589Z,13.40
2023-02-17T18:18:37.028Z,13.40
2023-02-17T18:21:10.366Z,13.50
2023-02-17T18:23:43.777Z,13.50
2023-02-17T18:26:18.602Z,13.60
2023-02-17T18:28:51.880Z,13.40
2023-02-17T18:31:28.644Z,13.50
2023-02-17T18:34:04.426Z,13.50
2023-02-17T18:36:37.953Z,13.50
2023-02-17T18:39:11.104Z,13.40
2023-02-17T18:41:45.702Z,13.30
2023-02-17T18:44:19.147Z,13.30
2023-02-17T18:46:52.599Z,13.30
2023-02-17T18:49:27.872Z,13.40
2023-02-17T18:52:01.181Z,13.30
2023-02-17T18:54:34.501Z,13.30
2023-02-17T18:57:07.722Z,13.30
2023-02-17T18:59:40.920Z,13.30
2023-02-17T19:02:14.238Z,13.30
2023-02-17T19:04:49.328Z,13.30
2023-02-17T19:07:23.477Z,13.30
2023-02-17T19:09:56.736Z,13.30
2023-02-17T19:12:30.042Z,13.30
2023-02-17T19:15:03.655Z,13.30
2023-02-17T19:17:36.826Z,13.10
2023-02-17T19:20:13.090Z,13.10
2023-02-17T19:22:46.237Z,13.00
2023-02-17T19:25:19.744Z,13.00
2023-02-17T19:27:52.976Z,13.00
2023-02-17T19:30:26.213Z,12.90
2023-02-17T19:32:59.438Z,12.90
2023-02-17T19:35:34.047Z,12.90
2023-02-17T19:38:07.467Z,12.80
2023-02-17T19:40:40.842Z,12.90
2023-02-17T19:43:14.244Z,12.80
2023-02-17T19:45:47.726Z,12.70
2023-02-17T19:48:24.207Z,12.60
2023-02-17T19:51:03.576Z,12.50
2023-02-17T19:53:37.166Z,12.50
2023-02-17T19:56:12.462Z,12.40
2023-02-17T19:58:47.923Z,12.30
2023-02-17T20:01:24.807Z,12.30
2023-02-17T20:03:59.649Z,12.20
2023-02-17T20:06:37.441Z,12.10
2023-02-17T20:09:14.789Z,12.00
2023-02-17T20:11:52.897Z,11.90
2023-02-17T20:14:26.318Z,11.80
2023-02-17T20:17:00.750Z,11.70
2023-02-17T20:19:37.680Z,11.70
2023-02-17T20:22:12.345Z,11.60
2023-02-17T20:24:45.600Z,11.60
2023-02-17T20:27:18.966Z,11.60
2023-02-17T20:29:52.165Z,11.60
2023-02-17T20:32:25.515Z,11.60
2023-02-17T20:34:58.796Z,11.60
2023-02-17T20:37:33.330Z,11.60
2023-02-17T20:40:08.355Z,11.70
2023-02-17T20:42:41.526Z,11.70
2023-02-17T20:45:14.797Z,11.60
2023-02-17T20:47:48.060Z,11.80
2023-02-17T20:50:23.634Z,11.70
2023-02-17T20:52:58.201Z,11.50
2023-02-17T20:55:31.864Z,11.50
2023-02-17T20:58:06.647Z,11.40
2023-02-17T21:00:40.758Z,11.40
2023-02-17T21:03:14.064Z,11.40
2023-02-17T21:05:47.360Z,11.30
2023-02-17T21:08:21.996Z,11.40
2023-02-17T21:10:55.147Z,11.40
2023-02-17T21:13:29.672Z,11.60
2023-02-17T21:16:03.267Z,11.70
2023-02-17T21:18:38.057Z,11.90
2023-02-17T21:21:11.496Z,12.00
2023-02-17T21:23:46.190Z,11.90
2023-02-17T21:26:19.525Z,12.00
2023-02-17T21:28:52.793Z,11.90
2023-02-17T21:31:28.921Z,11.80
2023-02-17T21:34:02.256Z,11.80
2023-02-17T21:36:36.124Z,11.70
2023-02-17T21:39:11.619Z,11.80
2023-02-17T21:41:45.031Z,11.80
2023-02-17T21:44:35.829Z,11.90
2023-02-17T21:47:09.139Z,11.80
2023-02-17T21:49:42.486Z,11.80
2023-02-17T21:52:16.304Z,11.80
2023-02-17T21:54:50.845Z,11.80
2023-02-17T21:57:24.111Z,11.90
2023-02-17T21:59:57.320Z,11.90
2023-02-17T22:02:30.594Z,11.80
2023-02-17T22:05:04.071Z,11.80
2023-02-17T22:07:37.865Z,11.80
2023-02-17T22:10:12.978Z,11.80
2023-02-17T22:12:46.154Z,11.70
2023-02-17T22:15:19.621Z,11.70
2023-02-17T22:17:52.849Z,11.70
2023-02-17T22:20:26.825Z,11.60
2023-02-17T22:23:00.086Z,11.60
2023-02-17T22:25:34.705Z,11.70
2023-02-17T22:28:10.305Z,11.70
2023-02-17T22:30:44.425Z,11.70
2023-02-17T22:33:17.770Z,11.60
2023-02-17T22:35:59.428Z,11.60
2023-02-17T22:38:33.022Z,11.50
2023-02-17T22:41:09.200Z,11.60
2023-02-17T22:43:44.045Z,11.70
2023-02-17T22:46:19.959Z,11.70
2023-02-17T22:48:54.493Z,11.70
2023-02-17T22:51:30.697Z,11.70
2023-02-17T22:54:04.751Z,11.70
2023-02-17T22:56:39.330Z,11.70
2023-02-17T22:59:12.643Z,11.80
2023-02-17T23:01:46.322Z,11.70
2023-02-17T23:04:19.831Z,11.70
2023-02-17T23:06:53.126Z,12.00
2023-02-17T23:09:26.429Z,12.00
2023-02-17T23:12:01.009Z,12.10
2023-02-17T23:14:36.974Z,12.10
2023-02-17T23:17:13.101Z,12.00
2023-02-17T23:19:46.463Z,12.00
2023-02-17T23:22:20.368Z,11.90
2023-02-17T23:24:53.614Z,11.90
2023-02-17T23:27:28.272Z,11.90
2023-02-17T23:30:01.526Z,11.90
2023-02-17T23:32:34.841Z,11.90
2023-02-17T23:35:08.484Z,12.00
2023-02-17T23:37:41.897Z,12.00
2023-02-17T23:40:16.254Z,12.00
2023-02-17T23:42:50.853Z,12.00
2023-02-17T23:45:24.076Z,12.00
2023-02-17T23:47:57.278Z,12.10
2023-02-17T23:50:30.456Z,11.90
2023-02-17T23:53:03.637Z,12.00
2023-02-17T23:55:36.946Z,12.00
2023-02-17T23:58:11.554Z,12.10
